地図

経路データ

SID SEASON NUMBER BASIN SUBBASIN NAME ISO_TIME NATURE LAT LON WMO_WIND WMO_PRES WMO_AGENCY TRACK_TYPE DIST2LAND LANDFALL IFLAG USA_AGENCY USA_ATCF_ID USA_LAT USA_LON USA_RECORD USA_STATUS USA_WIND USA_PRES USA_SSHS USA_R34_NE USA_R34_SE USA_R34_SW USA_R34_NW USA_R50_NE USA_R50_SE USA_R50_SW USA_R50_NW USA_R64_NE USA_R64_SE USA_R64_SW USA_R64_NW USA_POCI USA_ROCI USA_RMW USA_EYE TOKYO_LAT TOKYO_LON TOKYO_GRADE TOKYO_WIND TOKYO_PRES TOKYO_R50_DIR TOKYO_R50_LONG TOKYO_R50_SHORT TOKYO_R30_DIR TOKYO_R30_LONG TOKYO_R30_SHORT TOKYO_LAND CMA_LAT CMA_LON CMA_CAT CMA_WIND CMA_PRES HKO_LAT HKO_LON HKO_CAT HKO_WIND HKO_PRES NEWDELHI_LAT NEWDELHI_LON NEWDELHI_GRADE NEWDELHI_WIND NEWDELHI_PRES NEWDELHI_CI NEWDELHI_DP NEWDELHI_POCI REUNION_LAT REUNION_LON REUNION_TYPE REUNION_WIND REUNION_PRES REUNION_TNUM REUNION_CI REUNION_RMW REUNION_R34_NE REUNION_R34_SE REUNION_R34_SW REUNION_R34_NW REUNION_R50_NE REUNION_R50_SE REUNION_R50_SW REUNION_R50_NW REUNION_R64_NE REUNION_R64_SE REUNION_R64_SW REUNION_R64_NW BOM_LAT BOM_LON BOM_TYPE BOM_WIND BOM_PRES BOM_TNUM BOM_CI BOM_RMW BOM_R34_NE BOM_R34_SE BOM_R34_SW BOM_R34_NW BOM_R50_NE BOM_R50_SE BOM_R50_SW BOM_R50_NW BOM_R64_NE BOM_R64_SE BOM_R64_SW BOM_R64_NW BOM_ROCI BOM_POCI BOM_EYE BOM_POS_METHOD BOM_PRES_METHOD NADI_LAT NADI_LON NADI_CAT NADI_WIND NADI_PRES WELLINGTON_LAT WELLINGTON_LON WELLINGTON_WIND WELLINGTON_PRES DS824_LAT DS824_LON DS824_STAGE DS824_WIND DS824_PRES TD9636_LAT TD9636_LON TD9636_STAGE TD9636_WIND TD9636_PRES TD9635_LAT TD9635_LON TD9635_WIND TD9635_PRES TD9635_ROCI NEUMANN_LAT NEUMANN_LON NEUMANN_CLASS NEUMANN_WIND NEUMANN_PRES MLC_LAT MLC_LON MLC_CLASS MLC_WIND MLC_PRES USA_GUST BOM_GUST BOM_GUST_PER REUNION_GUST REUNION_GUST_PER USA_SEAHGT USA_SEARAD_NE USA_SEARAD_SE USA_SEARAD_SW USA_SEARAD_NW STORM_SPEED STORM_DIR
1973240N18112 1973 89 WP MM NOT_NAMED 1973-08-28 00:00:00 TS 17.8000 111.900 main 185 171 __O___________ -1 17.8000 111.900 0 19 1004 8 13
1973240N18112 1973 89 WP MM NOT_NAMED 1973-08-28 03:00:00 TS 18.1975 111.997 main 171 160 __P___________ -1 18.1975 111.997 0 19 1004 8 13
1973240N18112 1973 89 WP MM NOT_NAMED 1973-08-28 06:00:00 TS 18.6000 112.100 main 160 142 __O___________ -1 18.6000 112.100 0 19 1004 8 14
1973240N18112 1973 89 WP MM NOT_NAMED 1973-08-28 09:00:00 TS 19.0075 112.207 main 142 133 __P___________ -1 19.0075 112.207 0 19 1003 8 13
1973240N18112 1973 89 WP MM NOT_NAMED 1973-08-28 12:00:00 TS 19.4000 112.300 main 138 136 __O___________ -1 19.4000 112.300 0 19 1003 8 12
1973240N18112 1973 89 WP MM NOT_NAMED 1973-08-28 15:00:00 TS 19.7650 112.380 main 148 148 __P___________ -1 19.7650 112.380 0 19 1003 7 8
1973240N18112 1973 89 WP MM NOT_NAMED 1973-08-28 18:00:00 TS 20.1000 112.400 main 156 142 __O___________ -1 20.1000 112.400 0 19 1003 7 356
1973240N18112 1973 89 WP MM NOT_NAMED 1973-08-28 21:00:00 TS 20.4300 112.330 main 142 108 __P___________ -1 20.4300 112.330 0 24 1003 6 345
1973240N18112 1973 89 WP MM NOT_NAMED 1973-08-29 00:00:00 TS 20.6600 112.240 main 108 93 __OO__________ -1 20.7000 112.200 1 29 1003 20.5000 112.400 TD 25 1004 4 330
1973240N18112 1973 89 WP MM NOT_NAMED 1973-08-29 03:00:00 TS 20.7700 112.118 main 93 88 __PP__________ -1 20.8800 112.057 1 26 1002 20.5500 112.240 TD 25 1004 3 305
1973240N18112 1973 89 WP MM NOT_NAMED 1973-08-29 06:00:00 TS 20.8286 111.986 main 88 73 __OO__________ -1 21.0000 111.900 1 23 1002 20.6000 112.100 TD 25 1004 3 295
1973240N18112 1973 89 WP MM NOT_NAMED 1973-08-29 09:00:00 TS 20.8787 111.867 main 73 70 __PP__________ -1 21.1075 111.742 1 23 1002 20.6500 111.992 TD 25 1004 3 299
1973240N18112 1973 89 WP MM NOT_NAMED 1973-08-29 12:00:00 TS 20.9500 111.750 main 59 56 __OO__________ -1 21.2000 111.600 1 23 1002 20.7000 111.900 TD 25 1004 2 306
1973240N18112 1973 89 WP MM NOT_NAMED 1973-08-29 15:00:00 TS 21.0250 111.654 main 56 44 __PP__________ -1 21.3000 111.492 1 23 1002 20.7500 111.815 TD 25 1003 2 309
1973240N18112 1973 89 WP MM NOT_NAMED 1973-08-29 18:00:00 TS 21.1000 111.550 main 44 24 __OO__________ -1 21.4000 111.400 1 23 1002 20.8000 111.700 TD 25 1003 3 304
1973240N18112 1973 89 WP MM NOT_NAMED 1973-08-29 21:00:00 TS 21.1788 111.411 main 24 22 __PP__________ -1 21.5000 111.315 1 23 1001 20.8575 111.508 TD 25 1002 3 298
1973240N18112 1973 89 WP MM NOT_NAMED 1973-08-30 00:00:00 TS 21.2500 111.250 main 11 11 __OO__________ -1 21.6000 111.200 1 23 1001 20.9000 111.300 TD 25 1002 4 291
1973240N18112 1973 89 WP MM NOT_NAMED 1973-08-30 03:00:00 TS 21.3112 111.045 main 22 15 __PP__________ -1 21.7225 111.015 1 23 1000 20.8999 111.075 TD 25 1002 3 287
1973240N18112 1973 89 WP MM NOT_NAMED 1973-08-30 06:00:00 TS 21.3500 110.900 main 10 10 __OO__________ -1 21.8000 110.800 1 23 1000 20.9000 111.000 TD 25 1002 1 301
1973240N18112 1973 89 WP MM NOT_NAMED 1973-08-30 09:00:00 TS 21.3614 110.961 main 11 11 __PP__________ -1 21.7724 110.615 1 23 1000 20.9503 111.307 TD 25 1002 1 90
1973240N18112 1973 89 WP MM NOT_NAMED 1973-08-30 12:00:00 TS 21.3500 111.000 main 11 10 __OO__________ -1 21.7000 110.400 1 23 1000 21.0000 111.600 TD 25 1002 1 257
1973240N18112 1973 89 WP MM NOT_NAMED 1973-08-30 15:00:00 TS 21.3322 110.833 main 10 0 __PP__________ -1 21.6501 110.108 1 23 1000 21.0144 111.558 TD 25 1002 5 264
1973240N18112 1973 89 WP MM NOT_NAMED 1973-08-30 18:00:00 TS 21.3000 110.500 main 0 0 __OO__________ -1 21.6000 109.800 1 23 1000 21.0000 111.200 TD 25 1002 8 265
1973240N18112 1973 89 WP MM NOT_NAMED 1973-08-30 21:00:00 TS 21.2619 110.000 main 0 0 __PP__________ -1 21.5648 109.558 1 23 1000 20.9589 110.442 TD 25 1002 10 264
1973240N18112 1973 89 WP MM NOT_NAMED 1973-08-31 00:00:00 TS 21.2000 109.433 main 24 22 O_OO_____OOO__ jtwc_wp WP141973 21.2000 109.300 25 -1 21.5000 109.300 1 23 1000 20.9000 109.700 TD 25 1002 21.2000 109.300 TC 25 21.2000 109.300 1 25 21.2000 109.300 25 1002 180 8 257
1973240N18112 1973 89 WP MM NOT_NAMED 1973-08-31 03:00:00 TS 21.0851 109.150 main 35 35 P_PP_____PPP__ WP141973 21.0601 109.090 27 -1 21.3801 108.958 1 26 1000 20.8569 109.453 TD 25 1002 21.0601 109.090 TC 27 21.0268 109.109 1 26 21.0601 109.090 27 1002 180 5 240
1973240N18112 1973 89 WP MM NOT_NAMED 1973-08-31 06:00:00 TS 20.9329 108.944 main 63 63 O_OO_____OPO__ jtwc_wp WP141973 20.9000 108.900 30 -1 21.2000 108.600 1 29 1000 20.8000 109.400 TD 25 1002 20.9000 108.900 TC 30 20.8528 108.925 1 27 20.9000 108.900 30 1002 180 5 227
1973240N18112 1973 89 WP MM NOT_NAMED 1973-08-31 09:00:00 TS 20.7429 108.760 main 88 88 P_PP_____PPP__ WP141973 20.7075 108.743 30 -1 20.9500 108.277 1 29 999 20.7075 109.300 TD 25 1002 20.7075 108.743 TC 30 20.6774 108.753 1 28 20.7075 108.743 30 1002 180 5 220
1973240N18112 1973 89 WP MM NOT_NAMED 1973-08-31 12:00:00 TS 20.5500 108.600 main 108 107 O_OO_____OOO__ jtwc_wp WP141973 20.5000 108.600 30 -1 20.7000 108.000 1 29 999 20.6000 109.200 TD 25 1002 20.5000 108.600 TC 30 20.5000 108.600 1 30 20.5000 108.600 30 1002 180 5 219
1973240N18112 1973 89 WP MM NOT_NAMED 1973-08-31 15:00:00 TS 20.3759 108.445 main 113 98 P_PP_____PPP__ WP141973 20.2925 108.450 30 -1 20.5424 107.785 1 33 997 20.5150 109.065 TD 25 1002 20.2925 108.450 TC 30 20.3207 108.467 1 30 20.2925 108.450 30 1002 180 5 220
1973240N18112 1973 89 WP MM NOT_NAMED 1973-08-31 18:00:00 TS 20.2070 108.290 main 98 91 O_OO_____OPO__ jtwc_wp WP141973 20.1000 108.300 30 -1 20.4000 107.600 2 38 995 20.4000 108.900 TD 25 1002 20.1000 108.300 TC 30 20.1421 108.338 1 30 20.1000 108.300 30 1002 180 4 220
1973240N18112 1973 89 WP MM NOT_NAMED 1973-08-31 21:00:00 TS 20.0349 108.138 main 91 91 P_PP_____PPP__ WP141973 19.9499 108.173 30 -1 20.1925 107.385 2 43 995 20.1999 108.737 TD 25 1002 19.9499 108.173 TC 30 19.9675 108.189 1 30 19.9499 108.173 30 1002 180 5 223
1973240N18112 1973 89 WP MM NOT_NAMED 1973-09-01 00:00:00 TS 19.8667 107.950 main 91 91 O_OO_____OOO__ jtwc_wp WP141973 19.8000 108.000 30 -1 20.0000 107.200 3 48 995 20.0000 108.500 TD 25 1002 19.8000 108.000 TC 30 19.8000 108.000 1 30 19.8000 108.000 30 1002 180 6 231
1973240N18112 1973 89 WP MM NOT_NAMED 1973-09-01 03:00:00 TS 19.6918 107.683 main 104 104 P_PP_____PPP__ WP141973 19.5925 107.722 30 -1 19.8775 107.085 3 48 995 19.8852 108.115 TD 25 1002 19.5925 107.722 TC 30 19.6106 107.731 1 30 19.5925 107.722 30 1002 150 6 238
1973240N18112 1973 89 WP MM NOT_NAMED 1973-09-01 06:00:00 TS 19.5388 107.387 main 122 107 O_OO_____OPO__ jtwc_wp WP141973 19.4000 107.400 30 -1 19.8000 107.000 3 48 995 19.8000 107.700 TD 25 1002 19.4000 107.400 TC 30 19.4329 107.422 1 30 19.4000 107.400 30 1002 120 6 243
1973240N18112 1973 89 WP MM NOT_NAMED 1973-09-01 09:00:00 TS 19.4210 107.110 main 109 98 P_PP_____PPP__ WP141973 19.2700 107.085 30 -1 19.7275 106.907 3 48 995 19.6998 107.393 TD 25 1002 19.2700 107.085 TC 30 19.2887 107.102 1 30 19.2700 107.085 30 1002 120 5 250
1973240N18112 1973 89 WP MM NOT_NAMED 1973-09-01 12:00:00 TS 19.3500 106.850 main 98 83 O_OO_____OOO__ jtwc_wp WP141973 19.2000 106.800 30 -1 19.7000 106.800 3 48 995 19.6000 107.100 TD 25 1002 19.2000 106.800 TC 30 19.2000 106.800 1 30 19.2000 106.800 30 1002 120 5 257
1973240N18112 1973 89 WP MM NOT_NAMED 1973-09-01 15:00:00 TS 19.3150 106.622 main 83 62 P_PP_____PPP__ WP141973 19.1699 106.593 30 -1 19.7275 106.650 3 48 995 19.4850 106.750 TD 25 1002 19.1699 106.593 TC 30 19.1679 106.554 1 30 19.1699 106.593 30 1002 120 4 267
1973240N18112 1973 89 WP MM NOT_NAMED 1973-09-01 18:00:00 TS 19.3295 106.405 main 62 41 O_OO_____OPO__ jtwc_wp WP141973 19.2000 106.400 30 -1 19.8000 106.500 3 48 995 19.4000 106.400 TD 25 1002 19.2000 106.400 TC 30 19.1947 106.328 1 30 19.2000 106.400 30 1002 120 4 282
1973240N18112 1973 89 WP MM NOT_NAMED 1973-09-01 21:00:00 TS 19.4008 106.183 main 41 20 P_PP_____PPP__ WP141973 19.2775 106.150 30 -1 19.9075 106.400 3 48 995 19.3800 106.088 TD 25 1002 19.2775 106.150 TC 30 19.2742 106.113 1 30 19.2775 106.150 30 1002 120 4 294
1973240N18112 1973 89 WP MM NOT_NAMED 1973-09-02 00:00:00 TS 19.5143 105.971 main 20 0 O_OO_____OOO__ jtwc_wp WP141973 19.4000 105.900 30 -1 20.0000 106.300 3 48 995 19.4000 105.800 TD 25 1002 19.4000 105.900 TC 30 19.4000 105.900 1 30 19.4000 105.900 30 1002 120 4 303
1973240N18112 1973 89 WP MM NOT_NAMED 1973-09-02 03:00:00 TS 19.6404 105.786 main 0 0 P_P______PPP__ WP141973 19.5274 105.700 27 -1 20.0225 106.157 3 43 996 TD 19.5274 105.700 TC 27 19.5975 105.671 1 26 19.5274 105.700 27 1001 90 5 307
1973240N18112 1973 89 WP MM NOT_NAMED 1973-09-02 06:00:00 TS 19.7860 105.589 main 0 0 O_O______OPO__ jtwc_wp WP141973 19.7000 105.500 25 -1 20.0000 106.000 2 38 998 19.7000 105.500 TC 25 19.8299 105.443 1 22 19.7000 105.500 25 1001 60 5 311
1973240N18112 1973 89 WP MM NOT_NAMED 1973-09-02 09:00:00 TS 19.9890 105.365 main 0 0 P_P______PPP__ WP141973 19.9800 105.250 20 -1 19.9575 105.857 2 33 998 19.9800 105.250 TC 20 20.0475 105.218 1 18 19.9800 105.250 20 1000 60 6 310
1973240N18112 1973 89 WP MM NOT_NAMED 1973-09-02 12:00:00 TS 20.1400 105.140 main 0 0 O_O______OOO__ jtwc_wp WP141973 20.2000 105.000 15 -1 19.9000 105.700 1 29 999 20.2000 105.000 TC 15 20.2000 105.000 1 15 20.2000 105.000 15 1000 60 4 290
1973240N18112 1973 89 WP MM NOT_NAMED 1973-09-02 15:00:00 TS 20.1356 104.941 main 0 0 P_P______PPP__ WP141973 20.1950 104.792 15 -1 19.8424 105.537 1 26 1000 20.1950 104.792 TC 15 20.2507 104.791 1 15 20.1950 104.792 15 1001 60 4 258
1973240N18112 1973 89 WP MM NOT_NAMED 1973-09-02 18:00:00 TS 20.0630 104.738 main 0 0 O_O______OPO__ jtwc_wp WP141973 20.1000 104.600 15 -1 19.8000 105.300 1 23 1002 20.1000 104.600 TC 15 20.2151 104.589 1 15 20.1000 104.600 15 1002 60 4 252
1973240N18112 1973 89 WP MM NOT_NAMED 1973-09-02 21:00:00 TS 20.0035 104.508 main 0 0 P_P______PPP__ WP141973 20.0351 104.403 15 -1 19.7903 104.938 1 21 1003 20.0351 104.403 TC 15 20.1220 104.393 1 15 20.0351 104.403 15 1003 60 5 257
1973240N18112 1973 89 WP MM NOT_NAMED 1973-09-03 00:00:00 TS 19.9600 104.260 main 0 O_O______OOO__ jtwc_wp WP141973 20.0000 104.200 15 -1 19.8000 104.500 0 19 1005 20.0000 104.200 TC 15 20.0000 104.200 1 15 20.0000 104.200 15 1004 60 5 259

デジタル台風データ・検索

IBTrACS Databaseについて

本データベースは、米国NOAAが公開する1842年以降の世界の熱帯低気圧のベストトラックデータアーカイブInternational Best Track Archive for Climate Stewardship (IBTrACS)を、ウェブで閲覧しやすい形式に変換したものです。

最終更新日:2021-11-26